Time;durP1;ratioP1;P1;durP2;ratioP2;P2;SDS_P1;SDS_P2;PMS_P1;PMS_P2;Temp;Humidity;BMP_temperature;BMP_pressure;BME280_temperature;BME280_humidity;BME280_pressure;Samples;Min_cycle;Max_cycle;Signal;HPM_P1;HPM_P2
2022/09/24 00:01:24;;;;;;;3.95;1.20;;;;;;;9.69;87.31;100987.75;4824268;29;20091;-86
2022/09/24 00:03:54;;;;;;;10.40;1.80;;;;;;;9.68;87.21;100984.25;4808983;29;20120;-87
2022/09/24 00:06:20;;;;;;;7.05;1.25;;;;;;;9.68;86.93;100986.06;4789266;29;20090;-87
2022/09/24 00:08:49;;;;;;;16.17;1.77;;;;;;;9.71;86.60;100982.34;4797169;29;20106;-87
2022/09/24 00:11:16;;;;;;;5.40;0.90;;;;;;;9.68;86.17;100975.53;4814784;29;20403;-87
2022/09/24 00:13:42;;;;;;;5.97;1.23;;;;;;;9.71;86.45;100983.19;4824749;29;20026;-86
2022/09/24 00:16:12;;;;;;;4.60;1.13;;;;;;;9.72;86.27;100984.00;4824127;29;20527;-87
2022/09/24 00:18:39;;;;;;;6.50;1.02;;;;;;;9.70;86.23;100978.84;4822029;29;20030;-88
2022/09/24 00:21:16;;;;;;;3.65;1.15;;;;;;;9.67;86.23;100974.66;4806168;29;20094;-87
2022/09/24 00:23:43;;;;;;;10.98;1.60;;;;;;;9.67;86.34;100982.59;4826203;29;20033;-87
2022/09/24 00:28:56;;;;;;;7.90;1.30;;;;;;;9.69;86.26;100987.75;4822090;29;20110;-86
2022/09/24 00:31:21;;;;;;;7.72;1.15;;;;;;;9.63;86.44;100978.53;4802341;29;20121;-87
2022/09/24 00:33:50;;;;;;;8.82;1.65;;;;;;;9.63;86.66;100985.59;4811536;29;20136;-86
2022/09/24 00:36:18;;;;;;;2.55;1.13;;;;;;;9.64;86.86;100982.84;4842848;29;20034;-86
2022/09/24 00:38:57;;;;;;;6.82;1.52;;;;;;;9.66;86.83;100982.72;4839881;29;20039;-86
2022/09/24 00:41:26;;;;;;;6.50;1.00;;;;;;;9.61;87.07;100982.25;4826970;29;20033;-85
2022/09/24 00:43:52;;;;;;;7.32;1.65;;;;;;;9.63;87.44;100975.03;4826910;29;20033;-86
2022/09/24 00:46:30;;;;;;;4.90;1.50;;;;;;;9.71;87.37;100980.53;4825865;29;20118;-85
2022/09/24 00:49:11;;;;;;;10.68;1.48;;;;;;;9.74;87.56;100975.00;4823529;29;20069;-86
2022/09/24 00:51:40;;;;;;;8.85;1.45;;;;;;;9.78;87.24;100983.50;4828383;29;20486;-87
2022/09/24 00:54:11;;;;;;;4.85;1.30;;;;;;;9.75;87.59;100970.56;4837631;29;20060;-88
2022/09/24 00:56:39;;;;;;;5.82;1.20;;;;;;;9.72;87.72;100979.56;4838916;29;20034;-87
2022/09/24 00:59:10;;;;;;;10.40;1.63;;;;;;;9.72;88.40;100976.09;4828601;29;20057;-87
2022/09/24 01:01:36;;;;;;;7.82;1.70;;;;;;;9.72;88.45;100970.81;4826959;29;20479;-87
2022/09/24 01:04:03;;;;;;;5.93;1.40;;;;;;;9.70;88.58;100967.47;4828544;29;20046;-87
2022/09/24 01:06:29;;;;;;;8.98;1.63;;;;;;;9.66;88.47;100969.50;4828514;29;20033;-87
2022/09/24 01:08:57;;;;;;;9.88;1.42;;;;;;;9.60;88.79;100962.09;4828613;29;20045;-87
2022/09/24 01:11:42;;;;;;;7.72;1.48;;;;;;;9.50;88.93;100962.00;4841147;29;20037;-87
2022/09/24 01:14:42;;;;;;;8.07;1.38;;;;;;;9.43;89.49;100965.13;4843082;29;20550;-87
2022/09/24 01:17:29;;;;;;;5.45;1.27;;;;;;;9.43;90.02;100966.94;4839130;29;20038;-87
2022/09/24 01:20:16;;;;;;;7.00;1.33;;;;;;;9.43;90.46;100959.88;4825121;29;20067;-87
2022/09/24 01:23:16;;;;;;;4.55;1.10;;;;;;;9.44;90.21;100960.72;4822463;29;20037;-87
2022/09/24 01:26:18;;;;;;;7.03;1.40;;;;;;;9.36;90.44;100961.34;4833718;29;20041;-87
2022/09/24 01:28:54;;;;;;;8.63;1.45;;;;;;;9.37;90.73;100967.44;4843425;29;20514;-87
2022/09/24 01:31:25;;;;;;;8.65;1.33;;;;;;;9.38;91.10;100956.75;4818382;29;20042;-87
2022/09/24 01:33:53;;;;;;;11.75;1.75;;;;;;;9.45;90.73;100970.28;4840234;29;20049;-87
2022/09/24 01:36:21;;;;;;;7.65;1.70;;;;;;;9.49;90.78;100968.25;4867142;29;20379;-85
2022/09/24 01:38:50;;;;;;;7.63;1.58;;;;;;;9.49;90.67;100960.34;4823961;29;20041;-87
2022/09/24 01:41:17;;;;;;;15.63;3.58;;;;;;;9.48;90.95;100956.00;4856660;29;20040;-86
2022/09/24 01:43:44;;;;;;;5.25;1.33;;;;;;;9.47;90.95;100957.81;4829417;29;20090;-87
2022/09/24 01:46:11;;;;;;;5.85;1.70;;;;;;;9.46;91.13;100964.03;4824247;29;20030;-86
2022/09/24 01:48:38;;;;;;;6.80;1.65;;;;;;;9.47;91.64;100956.97;4844656;29;20074;-87
2022/09/24 01:51:22;;;;;;;7.97;1.80;;;;;;;9.50;92.05;100954.94;4830320;29;20513;-87
2022/09/24 01:54:21;;;;;;;16.02;1.75;;;;;;;9.51;92.46;100956.59;4830113;29;20068;-87
2022/09/24 01:56:53;;;;;;;7.60;1.67;;;;;;;9.55;93.33;100959.84;4839188;29;20037;-87
2022/09/24 01:59:27;;;;;;;12.05;1.77;;;;;;;9.58;93.51;100954.31;4832996;29;20034;-87
2022/09/24 02:02:17;;;;;;;10.43;1.73;;;;;;;9.61;93.33;100945.28;4826150;29;20041;-87
2022/09/24 02:04:50;;;;;;;7.35;1.92;;;;;;;9.65;93.94;100949.38;4826101;29;20025;-87
2022/09/24 02:07:25;;;;;;;5.38;1.52;;;;;;;9.68;94.01;100951.75;4816198;29;20097;-86
2022/09/24 02:09:51;;;;;;;9.70;1.75;;;;;;;9.68;94.51;100954.41;4834875;29;20033;-86
2022/09/24 02:12:28;;;;;;;10.98;1.40;;;;;;;9.73;94.21;100952.19;4833324;29;20032;-86
2022/09/24 02:15:16;;;;;;;8.25;1.67;;;;;;;9.74;94.57;100945.97;4849515;29;20052;-87
2022/09/24 02:17:47;;;;;;;9.60;1.48;;;;;;;9.78;94.46;100946.53;4844261;29;20094;-86
2022/09/24 02:20:18;;;;;;;4.47;1.13;;;;;;;9.84;94.32;100947.84;4830461;29;20033;-87
2022/09/24 02:22:47;;;;;;;10.35;1.40;;;;;;;9.86;93.90;100949.38;4838436;29;20041;-86
2022/09/24 02:25:17;;;;;;;8.15;1.17;;;;;;;9.86;93.91;100941.47;4831223;29;20041;-87
2022/09/24 02:27:43;;;;;;;11.20;1.65;;;;;;;9.84;94.04;100943.41;4843944;29;20056;-88
2022/09/24 02:30:09;;;;;;;7.43;1.58;;;;;;;9.87;94.00;100947.59;4853419;29;20470;-87
2022/09/24 02:32:38;;;;;;;8.95;1.88;;;;;;;9.87;94.04;100944.97;4845415;29;20064;-86
2022/09/24 02:35:07;;;;;;;4.93;1.33;;;;;;;9.86;94.52;100938.00;4853273;29;20549;-87
2022/09/24 02:37:36;;;;;;;6.38;0.80;;;;;;;9.89;94.51;100949.13;4820244;29;20033;-86
2022/09/24 02:40:04;;;;;;;10.77;1.50;;;;;;;9.93;94.34;100941.81;4800970;29;20056;-86
2022/09/24 02:42:30;;;;;;;7.93;1.52;;;;;;;9.95;94.13;100945.16;4811671;29;20025;-86
2022/09/24 02:44:58;;;;;;;9.02;1.60;;;;;;;9.99;93.86;100949.22;4818717;29;20063;-87
2022/09/24 02:47:25;;;;;;;10.80;1.58;;;;;;;9.93;93.73;100944.44;4809632;29;20038;-86
2022/09/24 02:49:50;;;;;;;11.05;1.90;;;;;;;9.85;94.04;100945.09;4819783;29;20034;-87
2022/09/24 02:52:17;;;;;;;18.13;1.92;;;;;;;9.82;94.97;100947.97;4809156;29;20034;-87
2022/09/24 02:54:43;;;;;;;8.10;1.38;;;;;;;9.87;95.06;100948.44;4835079;29;20031;-87
2022/09/24 02:57:10;;;;;;;10.48;1.75;;;;;;;9.90;94.65;100940.25;4843065;29;20125;-87
2022/09/24 02:59:37;;;;;;;9.02;1.67;;;;;;;9.93;94.68;100941.81;4811780;29;20037;-86
2022/09/24 03:02:02;;;;;;;8.93;1.60;;;;;;;9.98;94.49;100950.19;4811023;29;20026;-87
2022/09/24 03:04:29;;;;;;;8.88;1.63;;;;;;;9.98;94.50;100944.91;4812733;29;20036;-86
2022/09/24 03:06:55;;;;;;;10.18;1.50;;;;;;;9.99;94.80;100943.94;4806036;29;20038;-87
2022/09/24 03:09:21;;;;;;;10.18;1.77;;;;;;;10.01;94.91;100942.00;4835361;29;20030;-86
2022/09/24 03:11:47;;;;;;;7.22;1.40;;;;;;;10.06;94.84;100946.91;4826571;29;20481;-86
2022/09/24 03:14:12;;;;;;;8.65;1.33;;;;;;;10.10;94.31;100948.31;4810766;29;20033;-87
2022/09/24 03:16:38;;;;;;;11.15;1.67;;;;;;;10.11;94.47;100950.00;4824665;29;20052;-86
2022/09/24 03:19:05;;;;;;;5.30;1.85;;;;;;;10.15;94.32;100947.91;4819933;29;20033;-87
2022/09/24 03:21:31;;;;;;;11.10;1.38;;;;;;;10.15;94.11;100943.50;4812630;29;20383;-87
2022/09/24 03:23:57;;;;;;;6.75;1.85;;;;;;;10.15;94.29;100948.78;4810071;29;20035;-87
2022/09/24 03:26:22;;;;;;;5.88;1.45;;;;;;;10.15;94.65;100943.50;4812349;29;20026;-87
2022/09/24 03:28:48;;;;;;;7.00;1.67;;;;;;;10.21;94.17;100949.22;4827051;29;20037;-86
2022/09/24 03:31:14;;;;;;;8.93;1.63;;;;;;;10.24;94.34;100948.97;4811487;29;20057;-86
2022/09/24 03:33:43;;;;;;;8.65;2.10;;;;;;;10.27;93.82;100954.81;4830290;29;20030;-86
2022/09/24 03:36:18;;;;;;;7.47;1.63;;;;;;;10.32;93.52;100953.59;4839766;29;20439;-86
2022/09/24 03:38:45;;;;;;;9.27;1.80;;;;;;;10.29;93.87;100942.31;4843670;29;20097;-86
2022/09/24 03:41:12;;;;;;;13.93;2.03;;;;;;;10.31;94.05;100939.53;4826725;29;20040;-85
2022/09/24 03:43:37;;;;;;;4.32;1.08;;;;;;;10.29;93.91;100941.47;4819437;29;20031;-86
2022/09/24 03:46:05;;;;;;;7.32;1.58;;;;;;;10.25;93.60;100938.28;4844030;29;20105;-87
2022/09/24 03:48:33;;;;;;;8.57;1.35;;;;;;;10.15;93.70;100946.13;4818337;29;20037;-86
2022/09/24 03:51:17;;;;;;;6.30;1.52;;;;;;;10.12;93.86;100953.47;4845915;29;20088;-87
2022/09/24 03:53:43;;;;;;;4.50;1.10;;;;;;;10.04;93.78;100952.31;4830019;29;20116;-88
2022/09/24 03:56:10;;;;;;;7.13;1.40;;;;;;;9.99;94.20;100948.38;4835191;29;20088;-87
2022/09/24 03:58:37;;;;;;;8.07;1.45;;;;;;;10.00;94.33;100942.97;4829461;29;20033;-86
2022/09/24 04:01:09;;;;;;;11.75;1.40;;;;;;;10.02;94.19;100943.66;4845251;29;20021;-88
2022/09/24 04:03:35;;;;;;;13.38;1.42;;;;;;;10.02;94.36;100945.47;4830058;29;20434;-87
2022/09/24 04:06:02;;;;;;;11.05;1.67;;;;;;;10.05;94.57;100939.94;4828118;29;20425;-87
2022/09/24 04:08:27;;;;;;;6.18;1.85;;;;;;;10.03;94.42;100934.78;4837918;29;20639;-86
2022/09/24 04:10:54;;;;;;;8.40;1.88;;;;;;;10.04;94.44;100948.81;4841508;29;20029;-87
2022/09/24 04:13:20;;;;;;;5.50;1.30;;;;;;;9.88;94.76;100960.66;4820921;29;20034;-81
2022/09/24 04:15:47;;;;;;;11.90;1.85;;;;;;;9.61;95.64;100961.13;4817962;29;20045;-81
2022/09/24 04:18:13;;;;;;;5.70;1.25;;;;;;;9.51;96.82;100953.97;4837806;29;20412;-87
2022/09/24 04:20:39;;;;;;;15.95;1.85;;;;;;;9.54;97.54;100963.41;4828754;29;20029;-86
2022/09/24 04:23:05;;;;;;;4.55;1.63;;;;;;;9.62;97.63;100974.19;4842031;29;20534;-87
2022/09/24 04:25:31;;;;;;;9.13;1.65;;;;;;;9.63;97.47;100964.50;4841875;29;20023;-87
2022/09/24 04:28:00;;;;;;;8.55;1.67;;;;;;;9.56;97.63;100969.41;4837887;29;20045;-87
2022/09/24 04:30:27;;;;;;;6.97;1.58;;;;;;;9.52;98.10;100966.19;4852561;29;20029;-86
2022/09/24 04:32:53;;;;;;;8.65;1.90;;;;;;;9.50;98.67;100973.41;4855144;29;20048;-87
2022/09/24 04:35:21;;;;;;;11.68;1.77;;;;;;;9.55;98.98;100975.66;4858016;29;20494;-87
2022/09/24 04:37:47;;;;;;;9.00;1.83;;;;;;;9.62;99.00;100970.75;4828366;29;20136;-87
2022/09/24 04:40:15;;;;;;;8.55;1.77;;;;;;;9.67;98.97;100979.09;4828746;29;20037;-87
2022/09/24 04:42:42;;;;;;;12.02;2.30;;;;;;;9.71;98.97;100975.25;4843617;29;20034;-86
2022/09/24 04:45:09;;;;;;;7.43;1.70;;;;;;;9.74;98.97;100972.38;4843897;29;20124;-86
2022/09/24 04:47:37;;;;;;;13.55;2.13;;;;;;;9.73;99.19;100973.31;4827603;29;20168;-86
2022/09/24 04:50:04;;;;;;;5.80;1.63;;;;;;;9.74;99.25;100972.38;4825900;29;20038;-87
2022/09/24 04:52:31;;;;;;;9.15;1.90;;;;;;;9.73;99.48;100977.78;4825336;29;20487;-87
2022/09/24 04:54:58;;;;;;;9.18;1.70;;;;;;;9.82;99.80;100978.81;4828047;29;20127;-87
2022/09/24 04:57:25;;;;;;;4.55;1.30;;;;;;;9.91;99.63;100978.06;4842397;29;20038;-87
2022/09/24 04:59:51;;;;;;;9.60;1.73;;;;;;;9.98;99.06;100975.75;4829329;29;20490;-87
2022/09/24 05:02:17;;;;;;;5.97;1.88;;;;;;;9.97;99.05;100984.66;4836108;29;20029;-86
2022/09/24 05:04:44;;;;;;;7.85;1.42;;;;;;;9.98;99.28;100984.53;4836547;29;20034;-87
2022/09/24 05:07:10;;;;;;;9.60;1.80;;;;;;;9.98;98.93;100989.81;4813469;29;20033;-87
2022/09/24 05:09:37;;;;;;;13.15;2.40;;;;;;;9.93;99.58;100986.69;4843517;29;20035;-87
2022/09/24 05:12:03;;;;;;;11.27;1.95;;;;;;;9.91;99.81;100980.69;4822574;29;20025;-87
2022/09/24 05:14:29;;;;;;;9.48;1.52;;;;;;;9.88;99.83;100989.72;4825569;29;20086;-87
2022/09/24 05:16:55;;;;;;;9.55;1.50;;;;;;;9.88;100.00;100975.66;4838448;29;20029;-85
2022/09/24 05:19:21;;;;;;;8.25;1.77;;;;;;;9.89;100.00;100977.34;4846515;29;20026;-87
2022/09/24 05:21:47;;;;;;;10.00;1.70;;;;;;;9.91;100.00;100986.81;4854715;29;20566;-86
2022/09/24 05:24:13;;;;;;;6.03;1.45;;;;;;;9.90;100.00;100985.16;4828727;29;20078;-86
2022/09/24 05:29:23;;;;;;;4.93;1.80;;;;;;;9.86;100.00;100981.06;4846219;29;20065;-86
2022/09/24 05:31:49;;;;;;;10.30;1.35;;;;;;;9.85;99.97;100986.47;4830298;29;20064;-85
2022/09/24 05:34:15;;;;;;;8.88;1.38;;;;;;;9.82;100.00;100998.16;4846809;29;20045;-86
2022/09/24 05:36:44;;;;;;;9.18;1.48;;;;;;;9.79;100.00;101007.13;4845749;29;20040;-86
2022/09/24 05:39:11;;;;;;;6.40;1.17;;;;;;;9.80;100.00;101002.69;4830036;29;20046;-86
2022/09/24 05:41:38;;;;;;;9.52;1.73;;;;;;;9.80;100.00;101006.19;4846114;29;20041;-86
2022/09/24 05:44:05;;;;;;;8.82;1.80;;;;;;;9.82;100.00;100999.94;4822212;29;20040;-86
2022/09/24 05:46:31;;;;;;;8.60;1.38;;;;;;;9.80;100.00;101014.09;4859256;29;20078;-85
2022/09/24 05:48:57;;;;;;;5.38;1.45;;;;;;;9.80;100.00;101008.84;4819295;29;20037;-86
2022/09/24 05:51:23;;;;;;;7.65;1.20;;;;;;;9.80;100.00;101015.91;4819128;29;20044;-86
2022/09/24 05:53:49;;;;;;;9.23;1.10;;;;;;;9.78;100.00;101021.31;4831028;29;20034;-87
2022/09/24 05:56:15;;;;;;;8.35;1.10;;;;;;;9.79;100.00;101020.34;4842625;29;20106;-87
2022/09/24 05:58:41;;;;;;;7.93;1.40;;;;;;;9.79;100.00;101025.63;4834439;29;20115;-86
2022/09/24 06:01:07;;;;;;;7.28;1.08;;;;;;;9.78;100.00;101033.66;4847249;29;20034;-87
2022/09/24 06:03:33;;;;;;;11.32;1.10;;;;;;;9.76;100.00;101040.88;4831092;29;20096;-87
2022/09/24 06:06:00;;;;;;;7.32;1.30;;;;;;;9.72;100.00;101037.66;4846431;29;20569;-86
2022/09/24 06:08:29;;;;;;;14.30;1.27;;;;;;;9.70;100.00;101029.00;4831886;29;20482;-86
2022/09/24 06:11:04;;;;;;;6.18;0.98;;;;;;;9.71;100.00;101037.78;4832242;29;20117;-86
2022/09/24 06:13:32;;;;;;;9.77;1.55;;;;;;;9.70;100.00;101041.38;4829094;29;20033;-86
2022/09/24 06:16:06;;;;;;;6.75;1.75;;;;;;;9.71;100.00;101041.25;4854655;29;20040;-86
2022/09/24 06:18:33;;;;;;;5.88;0.93;;;;;;;9.73;100.00;101041.13;4843622;29;20033;-86
2022/09/24 06:21:02;;;;;;;7.05;1.10;;;;;;;9.74;100.00;101043.66;4823598;29;20160;-86
2022/09/24 06:23:29;;;;;;;5.53;1.45;;;;;;;9.75;100.00;101042.69;4831092;29;20063;-87
2022/09/24 06:25:56;;;;;;;8.13;1.42;;;;;;;9.74;100.00;101041.00;4829705;29;20549;-87
2022/09/24 06:28:23;;;;;;;7.95;1.58;;;;;;;9.75;100.00;101039.19;4827416;29;20033;-87
2022/09/24 06:30:48;;;;;;;7.97;1.50;;;;;;;9.74;100.00;101045.44;4832176;29;20555;-87
2022/09/24 06:33:14;;;;;;;4.57;0.95;;;;;;;9.70;100.00;101042.19;4844587;29;20037;-86
2022/09/24 06:35:42;;;;;;;5.10;1.27;;;;;;;9.72;100.00;101040.28;4830920;29;20060;-85
2022/09/24 06:38:11;;;;;;;11.07;1.73;;;;;;;9.72;100.00;101040.28;4846574;29;20033;-86
2022/09/24 06:40:38;;;;;;;5.22;0.98;;;;;;;9.73;100.00;101054.34;4831805;29;20045;-86
2022/09/24 06:43:05;;;;;;;3.47;0.95;;;;;;;9.73;100.00;101049.88;4828724;29;20124;-87
2022/09/24 06:45:31;;;;;;;15.85;1.40;;;;;;;9.77;100.00;101061.03;4831253;29;20045;-86
2022/09/24 06:48:00;;;;;;;9.50;1.17;;;;;;;9.78;100.00;101067.97;4842395;29;20052;-86
2022/09/24 06:50:29;;;;;;;7.20;1.33;;;;;;;9.80;100.00;101068.72;4845409;29;20571;-87
2022/09/24 06:52:55;;;;;;;6.70;1.70;;;;;;;9.80;100.00;101076.63;4829445;29;20399;-85
2022/09/24 06:55:21;;;;;;;7.22;1.10;;;;;;;9.80;100.00;101072.19;4832635;29;20041;-86
2022/09/24 06:57:47;;;;;;;4.75;1.02;;;;;;;9.80;100.00;101074.84;4830096;29;20037;-86
2022/09/24 07:00:15;;;;;;;8.10;1.30;;;;;;;9.86;100.00;101076.13;4829447;29;20382;-86
2022/09/24 07:02:41;;;;;;;8.20;1.20;;;;;;;9.88;100.00;101073.38;4827285;29;20026;-87
2022/09/24 07:05:08;;;;;;;7.70;1.40;;;;;;;9.94;100.00;101070.22;4844043;29;20041;-87
2022/09/24 07:07:34;;;;;;;8.98;1.73;;;;;;;9.96;100.00;101076.22;4841529;29;20037;-87
2022/09/24 07:10:04;;;;;;;8.45;1.10;;;;;;;10.02;100.00;101083.66;4833286;29;20039;-86
2022/09/24 07:12:32;;;;;;;11.77;1.42;;;;;;;10.04;100.00;101083.53;4829562;29;20044;-86
2022/09/24 07:14:59;;;;;;;7.07;1.35;;;;;;;10.07;100.00;101093.84;4828531;29;20109;-86
2022/09/24 07:17:25;;;;;;;9.65;1.30;;;;;;;10.13;100.00;101095.97;4829378;29;20097;-85
2022/09/24 07:19:52;;;;;;;12.77;1.55;;;;;;;10.20;100.00;101096.31;4844915;29;20029;-86
2022/09/24 07:22:18;;;;;;;6.25;1.15;;;;;;;10.26;100.00;101101.09;4827426;29;20041;-87
2022/09/24 07:24:44;;;;;;;11.52;1.88;;;;;;;10.31;100.00;101106.00;4836945;29;20034;-86
2022/09/24 07:27:11;;;;;;;3.78;1.23;;;;;;;10.35;100.00;101106.59;4829907;29;20117;-86
2022/09/24 07:29:37;;;;;;;6.68;1.25;;;;;;;10.40;100.00;101107.88;4823348;29;20122;-86
2022/09/24 07:32:03;;;;;;;8.00;1.45;;;;;;;10.45;100.00;101098.75;4820499;29;20466;-86
2022/09/24 07:34:29;;;;;;;8.73;1.23;;;;;;;10.52;100.00;101102.59;4829096;29;20048;-86
2022/09/24 07:36:55;;;;;;;11.57;1.45;;;;;;;10.54;100.00;101109.41;4829243;29;20123;-86
2022/09/24 07:39:24;;;;;;;10.98;1.83;;;;;;;10.57;100.00;101108.34;4837994;29;20121;-86
2022/09/24 07:41:51;;;;;;;10.15;1.17;;;;;;;10.58;100.00;101112.66;4830517;29;20400;-85
2022/09/24 07:44:21;;;;;;;7.93;1.30;;;;;;;10.66;100.00;101109.34;4814021;29;20092;-85
2022/09/24 07:46:51;;;;;;;7.85;1.55;;;;;;;10.69;100.00;101110.94;4824887;29;20486;-84
2022/09/24 07:49:17;;;;;;;8.85;1.73;;;;;;;10.70;100.00;101116.09;4843701;29;20550;-87
2022/09/24 07:51:44;;;;;;;8.82;1.80;;;;;;;10.73;100.00;101114.97;4828112;29;20029;-87
2022/09/24 07:54:10;;;;;;;8.45;1.10;;;;;;;10.78;100.00;101118.09;4827345;29;20077;-87
2022/09/24 07:56:36;;;;;;;11.20;1.52;;;;;;;10.86;100.00;101122.72;4810368;29;20432;-89
2022/09/24 07:59:05;;;;;;;13.45;1.40;;;;;;;10.87;99.68;101121.75;4842911;29;20097;-87
2022/09/24 08:01:31;;;;;;;15.52;1.80;;;;;;;10.95;99.15;101115.81;4841116;29;20037;-87
2022/09/24 08:03:58;;;;;;;11.57;1.33;;;;;;;10.99;98.44;101122.53;4828578;29;20081;-87
2022/09/24 08:06:24;;;;;;;8.82;1.52;;;;;;;11.03;98.46;101116.84;4843907;29;20073;-86
2022/09/24 08:08:55;;;;;;;7.00;1.80;;;;;;;11.11;98.55;101124.13;4843551;29;20041;-88
2022/09/24 08:11:21;;;;;;;6.80;0.88;;;;;;;11.16;97.71;101123.72;4824585;29;20033;-86
2022/09/24 08:13:47;;;;;;;11.38;1.35;;;;;;;11.19;97.77;101133.22;4816471;29;20494;-88
2022/09/24 08:16:13;;;;;;;6.28;1.00;;;;;;;11.23;97.80;101129.31;4828621;29;20033;-87
2022/09/24 08:18:42;;;;;;;7.40;1.33;;;;;;;11.24;97.27;101126.56;4826314;29;20041;-88
2022/09/24 08:21:10;;;;;;;7.63;1.15;;;;;;;11.30;97.35;101130.47;4842843;29;20032;-89
2022/09/24 08:23:40;;;;;;;12.27;1.45;;;;;;;11.36;96.73;101129.09;4826399;29;20044;-87
2022/09/24 08:26:06;;;;;;;6.72;0.88;;;;;;;11.44;97.32;101139.88;4843707;29;20038;-88
2022/09/24 08:28:32;;;;;;;8.48;1.27;;;;;;;11.51;96.29;101141.03;4831267;29;20038;-88
2022/09/24 08:30:59;;;;;;;8.65;0.90;;;;;;;11.60;96.38;101147.31;4827689;29;20040;-88
2022/09/24 08:33:26;;;;;;;12.27;2.72;;;;;;;11.68;96.22;101151.09;4828715;29;20033;-87
2022/09/24 08:35:52;;;;;;;8.35;1.10;;;;;;;11.67;94.87;101150.28;4828178;29;20076;-88
2022/09/24 08:38:19;;;;;;;7.45;1.17;;;;;;;11.72;95.16;101155.19;4835151;29;20479;-87
2022/09/24 08:40:56;;;;;;;7.70;1.23;;;;;;;11.74;95.26;101159.34;4825598;29;20137;-87
2022/09/24 08:43:43;;;;;;;7.80;1.65;;;;;;;11.78;94.62;101158.09;4822184;29;20698;-88
2022/09/24 08:49:24;;;;;;;4.28;1.13;;;;;;;11.87;92.32;101164.41;4820018;29;20048;-89
2022/09/24 08:52:01;;;;;;;6.83;1.40;;;;;;;11.97;92.33;101159.16;4827591;29;20136;-87
2022/09/24 08:54:29;;;;;;;7.50;1.92;;;;;;;12.05;92.01;101161.13;4841439;29;20447;-87
2022/09/24 08:56:57;;;;;;;9.45;1.70;;;;;;;11.98;90.05;101160.81;4825493;29;20101;-88
2022/09/24 08:59:31;;;;;;;10.60;1.55;;;;;;;11.90;89.24;101168.59;4842217;29;20096;-91
2022/09/24 09:02:12;;;;;;;9.85;1.35;;;;;;;11.82;88.99;101171.09;4828493;29;20470;-89
2022/09/24 09:04:48;;;;;;;10.98;1.00;;;;;;;11.76;89.11;101169.81;4824529;29;20042;-88
2022/09/24 09:07:17;;;;;;;7.85;1.20;;;;;;;11.69;89.52;101176.63;4811768;29;20041;-88
2022/09/24 09:09:58;;;;;;;5.63;1.38;;;;;;;11.69;90.09;101176.63;4826879;29;20034;-89
2022/09/24 09:12:40;;;;;;;6.78;1.02;;;;;;;11.71;90.38;101180.81;4843217;29;20049;-89
2022/09/24 09:15:12;;;;;;;6.03;1.10;;;;;;;11.74;90.56;101174.41;4821610;29;20071;-87
2022/09/24 09:17:49;;;;;;;11.45;1.10;;;;;;;11.72;90.31;101179.81;4839953;29;20037;-88
2022/09/24 09:20:30;;;;;;;9.55;1.48;;;;;;;11.73;90.71;101181.53;4846965;29;20124;-89
2022/09/24 09:23:03;;;;;;;2.63;0.43;;;;;;;11.71;90.65;101183.47;4804944;29;20026;-88
2022/09/24 09:25:34;;;;;;;9.15;1.30;;;;;;;11.76;90.34;101183.06;4828432;29;20045;-88
2022/09/24 09:28:16;;;;;;;5.38;0.98;;;;;;;11.80;89.77;101184.47;4840764;29;20033;-85
2022/09/24 09:30:48;;;;;;;7.55;1.00;;;;;;;11.83;89.80;101184.22;4833804;29;20038;-87
2022/09/24 09:33:26;;;;;;;6.25;1.00;;;;;;;11.91;89.76;101199.44;4825960;29;20091;-87
2022/09/24 09:36:04;;;;;;;4.25;1.02;;;;;;;11.97;89.56;101192.75;4827542;29;20116;-90
2022/09/24 09:38:42;;;;;;;4.10;1.27;;;;;;;11.95;89.55;101194.69;4839958;29;20038;-80
2022/09/24 09:41:43;;;;;;;3.75;1.10;;;;;;;11.97;89.78;101198.03;4842242;29;20386;-81
2022/09/24 09:44:24;;;;;;;4.68;0.75;;;;;;;11.98;90.20;101200.56;4746711;30;20516;-87
2022/09/24 09:46:56;;;;;;;3.42;1.25;;;;;;;12.02;90.43;101201.13;4850407;29;20096;-88
2022/09/24 09:49:28;;;;;;;5.63;0.98;;;;;;;12.04;89.97;101196.53;4833974;29;20037;-89
2022/09/24 09:51:56;;;;;;;7.30;1.50;;;;;;;12.02;90.23;101193.19;4807977;29;20061;-88
2022/09/24 09:54:36;;;;;;;5.88;0.65;;;;;;;12.01;89.64;101207.38;4848774;29;20033;-87
2022/09/24 09:57:02;;;;;;;6.63;0.77;;;;;;;12.03;90.22;101206.31;4826271;29;20045;-88
2022/09/24 09:59:32;;;;;;;9.05;0.68;;;;;;;12.12;90.43;101214.44;4851591;29;20037;-89
2022/09/24 10:01:59;;;;;;;4.90;0.93;;;;;;;12.15;89.83;101209.69;4825337;29;20098;-87
2022/09/24 10:04:34;;;;;;;7.70;1.30;;;;;;;12.23;89.85;101208.19;4826284;29;20033;-86
2022/09/24 10:07:14;;;;;;;4.05;0.80;;;;;;;12.28;89.20;101211.25;4855323;29;20109;-86
2022/09/24 10:09:42;;;;;;;4.15;1.00;;;;;;;12.35;89.53;101214.19;4825965;29;20038;-86
2022/09/24 10:12:13;;;;;;;5.30;0.82;;;;;;;12.38;88.08;101206.81;4841623;29;20033;-86
2022/09/24 10:14:39;;;;;;;8.02;0.95;;;;;;;12.32;87.88;101209.19;4857855;29;20041;-87
2022/09/24 10:17:05;;;;;;;11.18;1.15;;;;;;;12.33;87.73;101211.69;4846522;29;20037;-88
2022/09/24 10:19:35;;;;;;;3.38;1.40;;;;;;;12.50;88.43;101217.31;4834182;29;20037;-89
2022/09/24 10:22:24;;;;;;;3.33;0.70;;;;;;;12.46;87.00;101215.88;4832232;29;20037;-90
2022/09/24 10:24:53;;;;;;;6.82;0.80;;;;;;;12.44;86.44;101223.97;4834320;29;20067;-89
2022/09/24 10:27:37;;;;;;;3.92;0.75;;;;;;;12.30;83.72;101229.66;4838621;29;20048;-92
2022/09/24 10:30:32;;;;;;;3.22;0.50;;;;;;;12.37;84.22;101222.88;4829987;29;20037;-90
2022/09/24 10:33:02;;;;;;;2.40;0.90;;;;;;;12.44;84.15;101223.16;4816180;29;20462;-88
2022/09/24 10:35:34;;;;;;;3.10;0.45;;;;;;;12.48;84.06;101214.78;4819867;29;20042;-89
2022/09/24 10:38:13;;;;;;;6.72;0.82;;;;;;;12.56;84.12;101226.50;4847527;29;20045;-87
2022/09/24 10:40:39;;;;;;;1.65;0.47;;;;;;;12.53;82.87;101217.03;4829099;29;20034;-88
2022/09/24 10:43:06;;;;;;;1.50;0.32;;;;;;;12.54;82.43;101221.34;4830579;29;20475;-81
2022/09/24 10:45:56;;;;;;;3.00;0.75;;;;;;;12.57;82.12;101215.75;4827724;29;20427;-80
2022/09/24 10:48:33;;;;;;;4.05;0.45;;;;;;;12.57;82.01;101212.25;4827637;29;20062;-89
2022/09/24 10:51:12;;;;;;;2.90;0.40;;;;;;;12.56;81.66;101213.25;4852683;29;20038;-89
2022/09/24 10:53:49;;;;;;;2.90;0.40;;;;;;;12.49;81.93;101213.81;4830924;29;20104;-87
2022/09/24 10:56:37;;;;;;;4.15;0.57;;;;;;;12.51;82.24;101216.31;4839894;29;20502;-88
2022/09/24 10:59:16;;;;;;;3.55;0.50;;;;;;;12.57;83.21;101205.16;4830698;29;20109;-89
2022/09/24 11:02:24;;;;;;;2.22;0.60;;;;;;;12.70;82.70;101214.66;4859505;29;20037;-88
2022/09/24 11:04:54;;;;;;;2.42;0.47;;;;;;;12.89;83.32;101205.84;4826129;29;20042;-90
2022/09/24 11:07:55;;;;;;;4.47;0.63;;;;;;;13.08;81.08;101217.41;4830705;29;20057;-90
2022/09/24 11:10:40;;;;;;;3.25;0.45;;;;;;;13.16;80.55;101209.59;4831756;29;20037;-89
2022/09/24 11:13:24;;;;;;;2.28;0.50;;;;;;;13.33;79.55;101196.56;4813348;29;20068;-89
2022/09/24 11:16:18;;;;;;;2.42;0.35;;;;;;;13.48;78.15;101184.50;4854617;29;20532;-88
2022/09/24 11:18:50;;;;;;;1.73;0.50;;;;;;;13.59;77.35;101180.00;4839146;29;20187;-89
2022/09/24 11:21:34;;;;;;;2.97;0.38;;;;;;;13.45;70.32;101179.47;4818467;29;20104;-88
2022/09/24 11:24:22;;;;;;;1.92;0.80;;;;;;;13.39;72.93;101188.84;4859188;29;20564;-90
2022/09/24 11:27:26;;;;;;;4.85;0.70;;;;;;;13.37;71.90;101189.97;4830247;29;20043;-89
2022/09/24 11:30:46;;;;;;;3.03;0.52;;;;;;;13.48;72.13;101191.63;4841973;29;20028;-88
2022/09/24 11:33:35;;;;;;;1.75;0.38;;;;;;;13.54;73.55;101198.22;4750737;29;20175;-90
2022/09/24 11:36:30;;;;;;;3.08;0.52;;;;;;;13.48;71.79;101196.94;4842642;29;20406;-89
2022/09/24 11:39:20;;;;;;;3.47;0.50;;;;;;;13.54;72.55;101199.03;4812990;29;20128;-88
2022/09/24 11:42:18;;;;;;;8.63;0.73;;;;;;;13.65;72.35;101203.31;4841344;29;20505;-88
2022/09/24 11:45:15;;;;;;;2.95;0.70;;;;;;;13.57;72.83;101204.06;4823539;29;20119;-89
2022/09/24 11:48:06;;;;;;;3.08;0.50;;;;;;;13.49;73.17;101203.94;4823939;29;20497;-90
2022/09/24 11:50:41;;;;;;;1.10;0.35;;;;;;;13.61;73.59;101200.16;4807348;29;20033;-90
2022/09/24 11:53:06;;;;;;;3.25;1.08;;;;;;;13.63;72.46;101210.63;4821580;29;20045;-88
2022/09/24 11:55:59;;;;;;;3.03;0.77;;;;;;;13.71;68.55;101201.94;4843190;29;20064;-89